Taisho Maru — JI3307 — position and weather

sailwx.info

Track history (hours):
 
Tides and Currents Weather Stations Pressure Air Temp Water Temp Dewpoint Dewpoint Depression Visibility Wind Speed Wind Dir Waves Ship Positions

Taisho Maru

Last reported at 2016-Mar-30 02:28 UTC. Time now 2016-Jul-01 08:07 UTC.
Position N 34°36' E 134°54'.
Warning: this ship's position is months out of date.

Length 93 m; draft 4.8 m.

Type: Cargo ship. MMSI: 431300084.

Date/timePositionNaut miles runAvg speedWind from/ knotsBaromVisibWave heightAir tempDewpointWater temp
2016-Mar-30 02:28N 34°36' E 134°54'1011.0
2016-Mar-30 01:34N 34°32' E 135°05'1514.3
2016-Mar-30 00:32N 34°18' E 134°60'1414.1
2016-Mar-29 23:33N 34°04' E 134°59'  
2016-Mar-26 10:06N 35°04' E 139°40'814.5
2016-Mar-26 09:33N 35°11' E 139°45'1211.9
2016-Mar-26 08:33N 35°23' E 139°42'1312.8
2016-Mar-26 07:33N 35°30' E 139°55'4 1.7
2016-Mar-26 05:22N 35°28' E 139°59'0 0.0
2016-Mar-26 04:22N 35°28' E 139°59'0 0.0
2016-Mar-26 03:28N 35°28' E 139°59'0 0.0
2016-Mar-26 02:28N 35°28' E 139°59'0 0.0
2016-Mar-26 01:16N 35°28' E 139°59'0 0.0
2016-Mar-26 00:22N 35°28' E 139°59'0 0.0
2016-Mar-25 23:28N 35°28' E 139°59'0 0.0
2016-Mar-25 22:04N 35°28' E 139°59'0 0.0
2016-Mar-25 21:04N 35°28' E 139°59'0 0.0
2016-Mar-25 20:28N 35°28' E 139°59'0 0.0
2016-Mar-25 19:28N 35°28' E 139°59'0 0.0
2016-Mar-25 18:28N 35°28' E 139°59'0 0.0
2016-Mar-25 17:16N 35°28' E 139°59'0 0.0
2016-Mar-25 16:16N 35°28' E 139°59'0 0.0
2016-Mar-25 14:28N 35°28' E 139°59'0 0.0
2016-Mar-25 13:10N 35°28' E 139°59'0 0.0
2016-Mar-25 12:28N 35°28' E 139°59'0 0.0
2016-Mar-25 11:28N 35°28' E 139°59'0 0.0
2016-Mar-25 10:28N 35°28' E 139°59'0 0.0
2016-Mar-25 09:16N 35°28' E 139°59'0 0.0
2016-Mar-25 08:28N 35°28' E 139°59'0 0.0
2016-Mar-25 07:28N 35°28' E 139°59'0 0.0
2016-Mar-25 06:16N 35°28' E 139°59'0 0.1
2016-Mar-25 05:28N 35°28' E 139°59'0 0.0
2016-Mar-25 04:22N 35°28' E 139°59'0 0.0
2016-Mar-25 03:28N 35°28' E 139°59'0 0.0
2016-Mar-25 02:22N 35°28' E 139°59'0 0.1
2016-Mar-25 01:28N 35°28' E 139°59'0 0.0
2016-Mar-25 00:22N 35°28' E 139°59'0 0.0
2016-Mar-24 23:16N 35°28' E 139°59'2 2.8
2016-Mar-24 22:33N 35°29' E 139°57'1 0.8
2016-Mar-24 21:32N 35°30' E 139°56'0 0.0
2016-Mar-24 20:29N 35°30' E 139°56'0 0.0
2016-Mar-24 19:32N 35°30' E 139°56'0 0.0
2016-Mar-24 18:32N 35°30' E 139°56'0 0.0
2016-Mar-24 17:32N 35°30' E 139°56'0 0.0
2016-Mar-24 16:29N 35°30' E 139°56'0 0.0
2016-Mar-24 15:32N 35°30' E 139°56'0 0.0
2016-Mar-24 14:32N 35°30' E 139°56'0 0.0
2016-Mar-24 13:32N 35°30' E 139°56'0 0.0
2016-Mar-24 12:32N 35°30' E 139°56'0 0.0
2016-Mar-24 11:32N 35°30' E 139°56'0 0.0
2016-Mar-24 10:32N 35°30' E 139°56'0 0.0
2016-Mar-24 09:33N 35°30' E 139°56'9 8.7
2016-Mar-24 08:33N 35°35' E 139°48'4 3.8
2016-Mar-24 07:33N 35°38' E 139°45'0 0.0
2016-Mar-24 06:33N 35°38' E 139°45'0 0.0
2016-Mar-24 05:30N 35°38' E 139°45'0 0.0
2016-Mar-24 04:30N 35°38' E 139°45'0 0.0
2016-Mar-24 03:33N 35°38' E 139°45'0 0.0
2016-Mar-24 02:30N 35°38' E 139°45'0 0.0
2016-Mar-24 01:30N 35°38' E 139°45'0 0.0
2016-Mar-24 00:12N 35°38' E 139°45'0 0.0
2016-Mar-23 22:33N 35°38' E 139°45'0 0.0
2016-Mar-23 20:30N 35°38' E 139°45'0 0.0
2016-Mar-23 19:33N 35°38' E 139°45'0 0.0
2016-Mar-23 18:30N 35°38' E 139°45'0 0.0
2016-Mar-23 17:30N 35°38' E 139°45'0 0.0
2016-Mar-23 16:30N 35°38' E 139°45'0 0.0
2016-Mar-23 15:24N 35°38' E 139°45'0 0.0
2016-Mar-23 14:30N 35°38' E 139°45'0 0.0
2016-Mar-23 13:24N 35°38' E 139°45'0 0.0
2016-Mar-23 12:30N 35°38' E 139°45'0 0.0
2016-Mar-23 11:18N 35°38' E 139°45'0 0.0
2016-Mar-23 10:30N 35°38' E 139°45'0 0.0
2016-Mar-23 09:30N 35°38' E 139°45'0 0.0
2016-Mar-23 08:33N 35°38' E 139°45'0 0.0
2016-Mar-23 07:30N 35°38' E 139°45'0 0.0
2016-Mar-23 06:33N 35°38' E 139°45'0 0.0
2016-Mar-23 05:30N 35°38' E 139°45'0 0.5
2016-Mar-23 04:33N 35°38' E 139°46'6 5.4
2016-Mar-23 03:31N 35°34' E 139°51'0 0.0
2016-Mar-23 02:33N 35°34' E 139°51'0 0.0
2016-Mar-23 01:33N 35°34' E 139°51'0 0.0
2016-Mar-23 00:27N 35°34' E 139°51'1 1.6
2016-Mar-22 23:33N 35°33' E 139°52'10 9.9
2016-Mar-22 22:33N 35°26' E 139°43'3 3.3
2016-Mar-22 21:33N 35°29' E 139°40'0 0.0
2016-Mar-22 20:32N 35°29' E 139°40'0 0.0
2016-Mar-22 19:32N 35°29' E 139°40'0 0.0
2016-Mar-22 18:32N 35°29' E 139°40'0 0.0
2016-Mar-22 17:32N 35°29' E 139°40'0 0.0
2016-Mar-22 16:32N 35°29' E 139°40'0 0.0
2016-Mar-22 15:32N 35°29' E 139°40'0 0.0
2016-Mar-22 14:32N 35°29' E 139°40'0 0.0
2016-Mar-22 13:32N 35°29' E 139°40'0 0.0
2016-Mar-22 12:32N 35°29' E 139°40'0 0.0
2016-Mar-22 11:32N 35°29' E 139°40'0 0.0
2016-Mar-22 10:32N 35°29' E 139°40'0 0.0
2016-Mar-22 09:32N 35°29' E 139°40'0 0.0
2016-Mar-22 08:32N 35°29' E 139°40'0 0.0
2016-Mar-22 07:32N 35°29' E 139°40'0 0.0
2016-Mar-22 06:32N 35°29' E 139°40'0 0.0
2016-Mar-22 05:32N 35°29' E 139°40'0 0.0
2016-Mar-22 04:32N 35°29' E 139°40'0 0.0
2016-Mar-22 03:32N 35°29' E 139°40'2 1.6
2016-Mar-22 02:33N 35°27' E 139°41'2 2.0
2016-Mar-22 01:34N 35°26' E 139°42'7 7.0
2016-Mar-22 00:34N 35°19' E 139°44'1111.2
2016-Mar-21 23:33N 35°08' E 139°46'7211.4
2016-Mar-21 17:12N 34°29' E 138°32'  
Track history (hours):
 
Tides and Currents Weather Stations Pressure Air Temp Water Temp Dewpoint Dewpoint Depression Visibility Wind Speed Wind Dir Waves Ship Positions

Taisho Maru

Last reported at 2016-Mar-30 02:28 UTC. Time now 2016-Jul-01 08:07 UTC.
Position N 34°36' E 134°54'.
Warning: this ship's position is months out of date.

Length 93 m; draft 4.8 m.

Type: Cargo ship. MMSI: 431300084.

Date/timePositionNaut miles runAvg speedWind from/ knotsBaromVisibWave heightAir tempDewpointWater temp
2016-Mar-30 02:28N 34°36' E 134°54'1011.0
2016-Mar-30 01:34N 34°32' E 135°05'1514.3
2016-Mar-30 00:32N 34°18' E 134°60'1414.1
2016-Mar-29 23:33N 34°04' E 134°59'  
2016-Mar-26 10:06N 35°04' E 139°40'814.5
2016-Mar-26 09:33N 35°11' E 139°45'1211.9
2016-Mar-26 08:33N 35°23' E 139°42'1312.8
2016-Mar-26 07:33N 35°30' E 139°55'4 1.7
2016-Mar-26 05:22N 35°28' E 139°59'0 0.0
2016-Mar-26 04:22N 35°28' E 139°59'0 0.0
2016-Mar-26 03:28N 35°28' E 139°59'0 0.0
2016-Mar-26 02:28N 35°28' E 139°59'0 0.0
2016-Mar-26 01:16N 35°28' E 139°59'0 0.0
2016-Mar-26 00:22N 35°28' E 139°59'0 0.0
2016-Mar-25 23:28N 35°28' E 139°59'0 0.0
2016-Mar-25 22:04N 35°28' E 139°59'0 0.0
2016-Mar-25 21:04N 35°28' E 139°59'0 0.0
2016-Mar-25 20:28N 35°28' E 139°59'0 0.0
2016-Mar-25 19:28N 35°28' E 139°59'0 0.0
2016-Mar-25 18:28N 35°28' E 139°59'0 0.0
2016-Mar-25 17:16N 35°28' E 139°59'0 0.0
2016-Mar-25 16:16N 35°28' E 139°59'0 0.0
2016-Mar-25 14:28N 35°28' E 139°59'0 0.0
2016-Mar-25 13:10N 35°28' E 139°59'0 0.0
2016-Mar-25 12:28N 35°28' E 139°59'0 0.0
2016-Mar-25 11:28N 35°28' E 139°59'0 0.0
2016-Mar-25 10:28N 35°28' E 139°59'0 0.0
2016-Mar-25 09:16N 35°28' E 139°59'0 0.0
2016-Mar-25 08:28N 35°28' E 139°59'0 0.0
2016-Mar-25 07:28N 35°28' E 139°59'0 0.0
2016-Mar-25 06:16N 35°28' E 139°59'0 0.1
2016-Mar-25 05:28N 35°28' E 139°59'0 0.0
2016-Mar-25 04:22N 35°28' E 139°59'0 0.0
2016-Mar-25 03:28N 35°28' E 139°59'0 0.0
2016-Mar-25 02:22N 35°28' E 139°59'0 0.1
2016-Mar-25 01:28N 35°28' E 139°59'0 0.0
2016-Mar-25 00:22N 35°28' E 139°59'0 0.0
2016-Mar-24 23:16N 35°28' E 139°59'2 2.8
2016-Mar-24 22:33N 35°29' E 139°57'1 0.8
2016-Mar-24 21:32N 35°30' E 139°56'0 0.0
2016-Mar-24 20:29N 35°30' E 139°56'0 0.0
2016-Mar-24 19:32N 35°30' E 139°56'0 0.0
2016-Mar-24 18:32N 35°30' E 139°56'0 0.0
2016-Mar-24 17:32N 35°30' E 139°56'0 0.0
2016-Mar-24 16:29N 35°30' E 139°56'0 0.0
2016-Mar-24 15:32N 35°30' E 139°56'0 0.0
2016-Mar-24 14:32N 35°30' E 139°56'0 0.0
2016-Mar-24 13:32N 35°30' E 139°56'0 0.0
2016-Mar-24 12:32N 35°30' E 139°56'0 0.0
2016-Mar-24 11:32N 35°30' E 139°56'0 0.0
2016-Mar-24 10:32N 35°30' E 139°56'0 0.0
2016-Mar-24 09:33N 35°30' E 139°56'9 8.7
2016-Mar-24 08:33N 35°35' E 139°48'4 3.8
2016-Mar-24 07:33N 35°38' E 139°45'0 0.0
2016-Mar-24 06:33N 35°38' E 139°45'0 0.0
2016-Mar-24 05:30N 35°38' E 139°45'0 0.0
2016-Mar-24 04:30N 35°38' E 139°45'0 0.0
2016-Mar-24 03:33N 35°38' E 139°45'0 0.0
2016-Mar-24 02:30N 35°38' E 139°45'0 0.0
2016-Mar-24 01:30N 35°38' E 139°45'0 0.0
2016-Mar-24 00:12N 35°38' E 139°45'0 0.0
2016-Mar-23 22:33N 35°38' E 139°45'0 0.0
2016-Mar-23 20:30N 35°38' E 139°45'0 0.0
2016-Mar-23 19:33N 35°38' E 139°45'0 0.0
2016-Mar-23 18:30N 35°38' E 139°45'0 0.0
2016-Mar-23 17:30N 35°38' E 139°45'0 0.0
2016-Mar-23 16:30N 35°38' E 139°45'0 0.0
2016-Mar-23 15:24N 35°38' E 139°45'0 0.0
2016-Mar-23 14:30N 35°38' E 139°45'0 0.0
2016-Mar-23 13:24N 35°38' E 139°45'0 0.0
2016-Mar-23 12:30N 35°38' E 139°45'0 0.0
2016-Mar-23 11:18N 35°38' E 139°45'0 0.0
2016-Mar-23 10:30N 35°38' E 139°45'0 0.0
2016-Mar-23 09:30N 35°38' E 139°45'0 0.0
2016-Mar-23 08:33N 35°38' E 139°45'0 0.0
2016-Mar-23 07:30N 35°38' E 139°45'0 0.0
2016-Mar-23 06:33N 35°38' E 139°45'0 0.0
2016-Mar-23 05:30N 35°38' E 139°45'0 0.5
2016-Mar-23 04:33N 35°38' E 139°46'6 5.4
2016-Mar-23 03:31N 35°34' E 139°51'0 0.0
2016-Mar-23 02:33N 35°34' E 139°51'0 0.0
2016-Mar-23 01:33N 35°34' E 139°51'0 0.0
2016-Mar-23 00:27N 35°34' E 139°51'1 1.6
2016-Mar-22 23:33N 35°33' E 139°52'10 9.9
2016-Mar-22 22:33N 35°26' E 139°43'3 3.3
2016-Mar-22 21:33N 35°29' E 139°40'0 0.0
2016-Mar-22 20:32N 35°29' E 139°40'0 0.0
2016-Mar-22 19:32N 35°29' E 139°40'0 0.0
2016-Mar-22 18:32N 35°29' E 139°40'0 0.0
2016-Mar-22 17:32N 35°29' E 139°40'0 0.0
2016-Mar-22 16:32N 35°29' E 139°40'0 0.0
2016-Mar-22 15:32N 35°29' E 139°40'0 0.0
2016-Mar-22 14:32N 35°29' E 139°40'0 0.0
2016-Mar-22 13:32N 35°29' E 139°40'0 0.0
2016-Mar-22 12:32N 35°29' E 139°40'0 0.0
2016-Mar-22 11:32N 35°29' E 139°40'0 0.0
2016-Mar-22 10:32N 35°29' E 139°40'0 0.0
2016-Mar-22 09:32N 35°29' E 139°40'0 0.0
2016-Mar-22 08:32N 35°29' E 139°40'0 0.0
2016-Mar-22 07:32N 35°29' E 139°40'0 0.0
2016-Mar-22 06:32N 35°29' E 139°40'0 0.0
2016-Mar-22 05:32N 35°29' E 139°40'0 0.0
2016-Mar-22 04:32N 35°29' E 139°40'0 0.0
2016-Mar-22 03:32N 35°29' E 139°40'2 1.6
2016-Mar-22 02:33N 35°27' E 139°41'2 2.0
2016-Mar-22 01:34N 35°26' E 139°42'7 7.0
2016-Mar-22 00:34N 35°19' E 139°44'1111.2
2016-Mar-21 23:33N 35°08' E 139°46'7211.4
2016-Mar-21 17:12N 34°29' E 138°32'  

Dump ship's entire track history